Time;durP1;ratioP1;P1;durP2;ratioP2;P2;SDS_P1;SDS_P2;PMS_P1;PMS_P2;Temp;Humidity;BMP_temperature;BMP_pressure;BME280_temperature;BME280_humidity;BME280_pressure;Samples;Min_cycle;Max_cycle;Signal;HPM_P1;HPM_P2
2023/12/25 00:01:40;;;;;;;29.23;11.27;;;;;;;;;;4907573;29;20929;-73
2023/12/25 00:04:06;;;;;;;28.63;11.07;;;;;;;;;;4926708;29;20221;-73
2023/12/25 00:06:31;;;;;;;23.87;9.53;;;;;;;;;;4926706;29;20241;-73
2023/12/25 00:08:57;;;;;;;23.70;11.00;;;;;;;;;;4911558;29;20316;-73
2023/12/25 00:11:22;;;;;;;33.17;13.03;;;;;;;;;;4928636;29;20276;-74
2023/12/25 00:13:50;;;;;;;30.77;11.70;;;;;;;;;;4909212;29;20237;-73
2023/12/25 00:16:16;;;;;;;29.00;12.27;;;;;;;;;;4918708;29;20253;-74
2023/12/25 00:18:42;;;;;;;41.47;16.57;;;;;;;;;;4927075;29;20275;-72
2023/12/25 00:21:07;;;;;;;47.50;15.80;;;;;;;;;;4926570;29;20260;-73
2023/12/25 00:23:32;;;;;;;42.90;15.53;;;;;;;;;;4928662;29;20232;-74
2023/12/25 00:25:58;;;;;;;42.60;16.70;;;;;;;;;;4911189;29;20281;-73
2023/12/25 00:28:23;;;;;;;43.23;16.30;;;;;;;;;;4911789;29;20225;-73
2023/12/25 00:30:48;;;;;;;38.33;16.20;;;;;;;;;;4923660;29;20982;-74
2023/12/25 00:33:14;;;;;;;29.53;12.73;;;;;;;;;;4926854;29;20907;-73
2023/12/25 00:35:39;;;;;;;31.47;12.07;;;;;;;;;;4926348;29;20762;-73
2023/12/25 00:38:04;;;;;;;30.70;12.17;;;;;;;;;;4928262;29;20240;-73
2023/12/25 00:40:30;;;;;;;28.93;11.77;;;;;;;;;;4928036;29;20226;-73
2023/12/25 00:42:55;;;;;;;29.30;10.80;;;;;;;;;;4926098;29;20763;-73
2023/12/25 00:45:20;;;;;;;30.93;12.27;;;;;;;;;;4917558;29;20233;-73
2023/12/25 00:47:46;;;;;;;28.53;12.03;;;;;;;;;;4925221;29;20229;-73
2023/12/25 00:50:11;;;;;;;29.20;12.67;;;;;;;;;;4928201;29;20255;-74
2023/12/25 00:52:36;;;;;;;28.43;11.80;;;;;;;;;;4910471;29;20280;-73
2023/12/25 00:55:02;;;;;;;25.43;11.17;;;;;;;;;;4926193;29;20797;-73
2023/12/25 00:57:29;;;;;;;25.87;10.33;;;;;;;;;;4903123;29;20223;-73
2023/12/25 00:59:54;;;;;;;24.60;10.37;;;;;;;;;;4925149;29;20241;-73
2023/12/25 01:02:19;;;;;;;24.97;9.90;;;;;;;;;;4927955;29;21115;-74
2023/12/25 01:04:44;;;;;;;23.50;9.33;;;;;;;;;;4926106;29;20248;-74
2023/12/25 01:07:10;;;;;;;18.90;8.93;;;;;;;;;;4926652;29;20257;-73
2023/12/25 01:09:35;;;;;;;22.30;8.63;;;;;;;;;;4925930;29;22163;-73
2023/12/25 01:12:01;;;;;;;21.03;8.83;;;;;;;;;;4927018;29;20728;-74
2023/12/25 01:14:26;;;;;;;21.57;8.87;;;;;;;;;;4910109;29;20229;-73
2023/12/25 01:16:52;;;;;;;20.57;8.37;;;;;;;;;;4925685;29;20225;-73
2023/12/25 01:19:17;;;;;;;20.87;8.50;;;;;;;;;;4927376;29;20266;-73
2023/12/25 01:21:42;;;;;;;22.47;8.00;;;;;;;;;;4927470;29;20549;-72
2023/12/25 01:24:08;;;;;;;19.27;8.10;;;;;;;;;;4926567;29;20252;-69
2023/12/25 01:26:33;;;;;;;20.00;8.77;;;;;;;;;;4925972;29;20288;-71
2023/12/25 01:28:58;;;;;;;22.70;9.33;;;;;;;;;;4924975;29;20264;-71
2023/12/25 01:31:24;;;;;;;25.27;10.07;;;;;;;;;;4925924;29;20320;-71
2023/12/25 01:33:49;;;;;;;25.97;10.13;;;;;;;;;;4925676;29;20229;-70
2023/12/25 01:36:15;;;;;;;29.00;11.17;;;;;;;;;;4925879;29;20284;-70
2023/12/25 01:38:40;;;;;;;26.20;10.77;;;;;;;;;;4925520;29;20296;-72
2023/12/25 01:41:05;;;;;;;26.07;10.77;;;;;;;;;;4926458;29;20233;-70
2023/12/25 01:43:31;;;;;;;29.10;11.90;;;;;;;;;;4925933;29;20611;-70
2023/12/25 01:45:56;;;;;;;33.60;13.57;;;;;;;;;;4926672;29;20225;-71
2023/12/25 01:48:21;;;;;;;26.70;11.43;;;;;;;;;;4927024;29;20303;-69
2023/12/25 01:50:47;;;;;;;26.23;11.90;;;;;;;;;;4909299;29;20257;-70
2023/12/25 01:53:12;;;;;;;26.20;11.27;;;;;;;;;;4926103;29;20221;-71
2023/12/25 01:55:38;;;;;;;23.47;9.50;;;;;;;;;;4926248;29;20236;-71
2023/12/25 01:58:03;;;;;;;21.70;9.60;;;;;;;;;;4909017;29;20245;-70
2023/12/25 02:00:28;;;;;;;20.23;9.03;;;;;;;;;;4925311;29;20292;-70
2023/12/25 02:02:54;;;;;;;21.83;9.83;;;;;;;;;;4909724;29;20234;-73
2023/12/25 02:05:19;;;;;;;38.13;14.63;;;;;;;;;;4925350;29;20722;-73
2023/12/25 02:07:44;;;;;;;27.47;11.27;;;;;;;;;;4924609;29;20349;-73
2023/12/25 02:10:10;;;;;;;29.37;11.63;;;;;;;;;;4925545;29;20228;-74
2023/12/25 02:12:36;;;;;;;26.73;10.93;;;;;;;;;;4908022;29;20252;-73
2023/12/25 02:15:01;;;;;;;25.23;10.03;;;;;;;;;;4924943;29;20237;-73
2023/12/25 02:17:27;;;;;;;22.83;9.03;;;;;;;;;;4925460;29;20233;-73
2023/12/25 02:19:52;;;;;;;19.30;8.30;;;;;;;;;;4925680;29;20296;-73
2023/12/25 02:22:17;;;;;;;23.67;10.60;;;;;;;;;;4925277;29;20727;-73
2023/12/25 02:24:51;;;;;;;23.33;10.03;;;;;;;;;;4907797;29;20277;-72
2023/12/25 02:27:17;;;;;;;21.10;8.97;;;;;;;;;;4923951;29;20221;-73
2023/12/25 02:29:42;;;;;;;19.63;8.50;;;;;;;;;;4925999;29;20977;-73
2023/12/25 02:32:07;;;;;;;19.07;8.60;;;;;;;;;;4925094;29;20354;-73
2023/12/25 02:34:33;;;;;;;22.50;8.83;;;;;;;;;;4924857;29;20696;-74
2023/12/25 02:36:58;;;;;;;20.10;8.20;;;;;;;;;;4924121;29;20284;-73
2023/12/25 02:39:23;;;;;;;20.23;8.47;;;;;;;;;;4908498;29;20328;-73
2023/12/25 02:41:48;;;;;;;20.53;8.40;;;;;;;;;;4925970;29;20332;-72
2023/12/25 02:44:16;;;;;;;19.60;8.70;;;;;;;;;;4924585;29;20229;-75
2023/12/25 02:46:41;;;;;;;20.07;8.17;;;;;;;;;;4923952;29;20241;-73
2023/12/25 02:49:06;;;;;;;21.97;8.30;;;;;;;;;;4909040;29;20234;-73
2023/12/25 02:51:33;;;;;;;18.07;7.60;;;;;;;;;;4924473;29;21163;-74
2023/12/25 02:53:58;;;;;;;21.27;7.90;;;;;;;;;;4926381;29;20248;-70
2023/12/25 02:56:24;;;;;;;21.03;8.33;;;;;;;;;;4923090;29;20715;-71
2023/12/25 02:58:49;;;;;;;17.73;8.00;;;;;;;;;;4924035;29;20252;-70
2023/12/25 03:01:14;;;;;;;15.93;7.80;;;;;;;;;;4908796;29;20232;-71
2023/12/25 03:03:40;;;;;;;19.73;8.13;;;;;;;;;;4908086;29;20218;-71
2023/12/25 03:06:05;;;;;;;20.17;7.50;;;;;;;;;;4908524;29;20253;-71
2023/12/25 03:08:30;;;;;;;21.90;8.20;;;;;;;;;;4923827;29;20312;-71
2023/12/25 03:10:56;;;;;;;22.47;8.77;;;;;;;;;;4924447;29;20716;-71
2023/12/25 03:13:21;;;;;;;22.63;9.67;;;;;;;;;;4908690;29;20225;-71
2023/12/25 03:15:46;;;;;;;26.43;9.80;;;;;;;;;;4907018;29;20320;-71
2023/12/25 03:18:11;;;;;;;25.60;10.50;;;;;;;;;;4926123;29;20932;-71
2023/12/25 03:20:37;;;;;;;29.27;10.83;;;;;;;;;;4924072;29;20707;-71
2023/12/25 03:23:02;;;;;;;24.03;10.63;;;;;;;;;;4924093;29;20612;-70
2023/12/25 03:25:27;;;;;;;27.43;10.93;;;;;;;;;;4905294;29;20222;-71
2023/12/25 03:27:53;;;;;;;25.77;10.00;;;;;;;;;;4924639;29;20221;-71
2023/12/25 03:30:18;;;;;;;25.17;9.37;;;;;;;;;;4926673;29;20291;-73
2023/12/25 03:32:43;;;;;;;27.40;9.13;;;;;;;;;;4908054;29;20238;-75
2023/12/25 03:35:09;;;;;;;19.13;8.60;;;;;;;;;;4925576;29;20670;-74
2023/12/25 03:37:34;;;;;;;19.20;8.27;;;;;;;;;;4924465;29;20615;-73
2023/12/25 03:40:00;;;;;;;19.00;7.80;;;;;;;;;;4928164;29;20391;-73
2023/12/25 03:42:25;;;;;;;22.77;7.93;;;;;;;;;;4911858;29;20218;-72
2023/12/25 03:44:50;;;;;;;19.27;7.60;;;;;;;;;;4928579;29;20745;-73
2023/12/25 03:47:16;;;;;;;20.27;8.83;;;;;;;;;;4929752;29;20229;-73
2023/12/25 03:49:41;;;;;;;20.47;8.40;;;;;;;;;;4927949;29;20226;-74
2023/12/25 03:52:06;;;;;;;19.97;8.57;;;;;;;;;;4928128;29;20217;-73
2023/12/25 03:54:32;;;;;;;21.50;8.07;;;;;;;;;;4927894;29;20246;-74
2023/12/25 03:56:57;;;;;;;18.50;7.80;;;;;;;;;;4912129;29;20529;-73
2023/12/25 03:59:22;;;;;;;20.17;8.33;;;;;;;;;;4930024;29;20237;-73
2023/12/25 04:01:48;;;;;;;22.17;7.70;;;;;;;;;;4927676;29;20644;-74
2023/12/25 04:04:13;;;;;;;18.37;7.70;;;;;;;;;;4928183;29;20220;-72
2023/12/25 04:06:38;;;;;;;20.97;7.90;;;;;;;;;;4927587;29;20241;-73
2023/12/25 04:09:04;;;;;;;21.10;8.30;;;;;;;;;;4927895;29;20222;-72
2023/12/25 04:11:30;;;;;;;20.70;7.37;;;;;;;;;;4927141;29;20229;-73
2023/12/25 04:13:55;;;;;;;18.57;7.50;;;;;;;;;;4928936;29;20225;-74
2023/12/25 04:16:21;;;;;;;22.97;8.70;;;;;;;;;;4928903;29;20225;-75
2023/12/25 04:18:46;;;;;;;23.57;9.17;;;;;;;;;;4909408;29;20351;-73
2023/12/25 04:21:24;;;;;;;23.80;9.60;;;;;;;;;;4929213;29;20240;-73
2023/12/25 04:23:50;;;;;;;27.40;10.20;;;;;;;;;;4911247;29;20233;-73
2023/12/25 04:26:15;;;;;;;23.97;9.13;;;;;;;;;;4929003;29;20688;-74
2023/12/25 04:28:40;;;;;;;22.27;8.37;;;;;;;;;;4911505;29;20316;-73
2023/12/25 04:31:06;;;;;;;22.57;8.60;;;;;;;;;;4927300;29;20257;-73
2023/12/25 04:33:31;;;;;;;21.70;8.97;;;;;;;;;;4928832;29;20305;-73
2023/12/25 04:35:56;;;;;;;21.90;8.87;;;;;;;;;;4926789;29;20730;-73
2023/12/25 04:38:22;;;;;;;19.57;8.60;;;;;;;;;;4929299;29;20240;-73
2023/12/25 04:40:47;;;;;;;22.77;8.90;;;;;;;;;;4928262;29;20236;-73
2023/12/25 04:43:12;;;;;;;20.07;9.03;;;;;;;;;;4927233;29;20281;-74
2023/12/25 04:45:37;;;;;;;22.03;8.70;;;;;;;;;;4926920;29;20233;-73
2023/12/25 04:48:03;;;;;;;24.17;10.10;;;;;;;;;;4927356;29;20233;-74
2023/12/25 04:50:28;;;;;;;28.20;10.33;;;;;;;;;;4927313;29;20229;-74
2023/12/25 04:52:54;;;;;;;24.77;10.27;;;;;;;;;;4928592;29;20732;-74
2023/12/25 04:55:19;;;;;;;29.47;10.60;;;;;;;;;;4927602;29;20229;-74
2023/12/25 04:57:44;;;;;;;30.57;10.93;;;;;;;;;;4926654;29;20304;-74
2023/12/25 05:00:10;;;;;;;29.50;10.33;;;;;;;;;;4927056;29;20249;-73
2023/12/25 05:02:35;;;;;;;23.47;9.70;;;;;;;;;;4927202;29;20221;-72
2023/12/25 05:05:02;;;;;;;23.80;10.00;;;;;;;;;;4929037;29;20229;-72
2023/12/25 05:07:27;;;;;;;21.30;8.60;;;;;;;;;;4926908;29;20243;-71
2023/12/25 05:09:53;;;;;;;22.93;8.57;;;;;;;;;;4928142;29;20229;-71
2023/12/25 05:12:18;;;;;;;21.80;8.30;;;;;;;;;;4911467;29;20252;-71
2023/12/25 05:14:45;;;;;;;20.47;7.53;;;;;;;;;;4927829;29;20264;-70
2023/12/25 05:17:10;;;;;;;18.87;7.17;;;;;;;;;;4911724;29;20712;-72
2023/12/25 05:19:36;;;;;;;19.27;7.70;;;;;;;;;;4927701;29;20244;-72
2023/12/25 05:22:03;;;;;;;21.33;7.77;;;;;;;;;;4928527;29;20727;-70
2023/12/25 05:24:29;;;;;;;21.57;8.00;;;;;;;;;;4927701;29;20229;-71
2023/12/25 05:26:54;;;;;;;19.93;8.10;;;;;;;;;;4928505;29;20312;-71
2023/12/25 05:29:19;;;;;;;18.10;8.20;;;;;;;;;;4928120;29;20232;-71
2023/12/25 05:31:45;;;;;;;21.07;8.17;;;;;;;;;;4910828;29;20233;-72
2023/12/25 05:34:10;;;;;;;22.67;7.83;;;;;;;;;;4927889;29;20707;-71
2023/12/25 05:36:35;;;;;;;19.60;7.20;;;;;;;;;;4919223;29;20229;-72
2023/12/25 05:39:01;;;;;;;19.77;6.93;;;;;;;;;;4910002;29;20233;-72
2023/12/25 05:41:26;;;;;;;19.20;7.43;;;;;;;;;;4910293;29;20314;-71
2023/12/25 05:43:51;;;;;;;21.43;8.37;;;;;;;;;;4924995;29;20264;-73
2023/12/25 05:46:17;;;;;;;18.53;7.43;;;;;;;;;;4907308;29;20261;-70
2023/12/25 05:48:42;;;;;;;19.43;7.50;;;;;;;;;;4925295;29;21044;-69
2023/12/25 05:51:07;;;;;;;18.07;7.07;;;;;;;;;;4925279;29;20808;-71
2023/12/25 05:53:33;;;;;;;22.17;8.13;;;;;;;;;;4926606;29;20828;-71
2023/12/25 05:55:58;;;;;;;20.60;8.47;;;;;;;;;;4924585;29;20236;-71
2023/12/25 05:58:23;;;;;;;19.47;7.33;;;;;;;;;;4925397;29;20237;-71
2023/12/25 06:00:49;;;;;;;17.10;6.70;;;;;;;;;;4923987;29;20660;-71
2023/12/25 06:03:14;;;;;;;16.43;6.70;;;;;;;;;;4927466;29;21098;-71
2023/12/25 06:05:40;;;;;;;13.73;6.67;;;;;;;;;;4923924;29;20738;-71
2023/12/25 06:08:05;;;;;;;16.63;6.70;;;;;;;;;;4925303;29;21018;-71
2023/12/25 06:10:30;;;;;;;14.57;6.37;;;;;;;;;;4924732;29;20240;-71
2023/12/25 06:12:56;;;;;;;16.17;6.40;;;;;;;;;;4925930;29;20229;-71
2023/12/25 06:15:21;;;;;;;18.07;6.67;;;;;;;;;;4925030;29;20778;-71
2023/12/25 06:17:46;;;;;;;16.93;6.40;;;;;;;;;;4925902;29;20888;-71
2023/12/25 06:20:12;;;;;;;16.90;7.50;;;;;;;;;;4924744;29;21463;-70
2023/12/25 06:22:37;;;;;;;30.17;15.30;;;;;;;;;;4925307;29;20244;-71
2023/12/25 06:25:03;;;;;;;19.43;9.20;;;;;;;;;;4907851;29;20236;-71
2023/12/25 06:27:29;;;;;;;21.70;9.47;;;;;;;;;;4907699;29;20231;-71
2023/12/25 06:29:54;;;;;;;19.97;9.13;;;;;;;;;;4907667;29;20236;-70
2023/12/25 06:32:20;;;;;;;27.33;9.70;;;;;;;;;;4922199;29;21194;-70
2023/12/25 06:34:45;;;;;;;19.53;9.67;;;;;;;;;;4924107;29;20232;-71
2023/12/25 06:37:10;;;;;;;23.10;8.23;;;;;;;;;;4923727;29;20229;-70
2023/12/25 06:39:36;;;;;;;17.27;7.93;;;;;;;;;;4908741;29;20230;-71
2023/12/25 06:42:01;;;;;;;23.33;12.40;;;;;;;;;;4925108;29;20232;-72
2023/12/25 06:44:26;;;;;;;20.77;10.67;;;;;;;;;;4924258;29;20227;-69
2023/12/25 06:46:52;;;;;;;20.53;9.37;;;;;;;;;;4924170;29;20226;-71
2023/12/25 06:49:17;;;;;;;23.47;9.47;;;;;;;;;;4924741;29;20222;-72
2023/12/25 06:51:43;;;;;;;25.47;11.10;;;;;;;;;;4923419;29;20275;-71
2023/12/25 06:54:09;;;;;;;20.20;9.03;;;;;;;;;;4923790;29;20217;-71
2023/12/25 06:56:34;;;;;;;23.83;9.10;;;;;;;;;;4924360;29;20228;-71
2023/12/25 06:59:00;;;;;;;24.13;10.00;;;;;;;;;;4909329;29;20233;-73
2023/12/25 07:01:25;;;;;;;22.73;8.70;;;;;;;;;;4925008;29;20244;-74
2023/12/25 07:03:50;;;;;;;19.00;8.20;;;;;;;;;;4925743;29;20229;-73
2023/12/25 07:06:16;;;;;;;21.23;9.83;;;;;;;;;;4923406;29;20230;-73
2023/12/25 07:08:41;;;;;;;21.37;9.30;;;;;;;;;;4928768;29;20245;-73
2023/12/25 07:11:06;;;;;;;18.40;7.60;;;;;;;;;;4926940;29;21075;-74
2023/12/25 07:13:36;;;;;;;15.07;6.07;;;;;;;;;;4924732;29;20272;-74
2023/12/25 07:16:02;;;;;;;16.47;7.00;;;;;;;;;;4925493;29;20252;-72
2023/12/25 07:18:27;;;;;;;20.33;7.33;;;;;;;;;;4924694;29;20244;-73
2023/12/25 07:20:52;;;;;;;17.63;7.00;;;;;;;;;;4924199;29;20498;-73
2023/12/25 07:23:19;;;;;;;16.47;6.50;;;;;;;;;;4907877;29;20224;-73
2023/12/25 07:25:44;;;;;;;13.27;5.70;;;;;;;;;;4925324;29;20221;-72
2023/12/25 07:28:10;;;;;;;13.50;5.60;;;;;;;;;;4908574;29;20248;-73
2023/12/25 07:30:35;;;;;;;12.63;5.03;;;;;;;;;;4924021;29;20253;-70
2023/12/25 07:33:01;;;;;;;14.03;5.00;;;;;;;;;;4923680;29;20226;-69
2023/12/25 07:35:26;;;;;;;12.27;4.80;;;;;;;;;;4923858;29;20226;-69
2023/12/25 07:37:52;;;;;;;18.10;5.50;;;;;;;;;;4907999;29;20236;-70
2023/12/25 07:40:17;;;;;;;11.63;5.00;;;;;;;;;;4907652;29;20240;-70
2023/12/25 07:42:43;;;;;;;14.40;5.60;;;;;;;;;;4923283;29;20264;-71
2023/12/25 07:45:11;;;;;;;13.40;5.87;;;;;;;;;;4926747;29;20237;-70
2023/12/25 07:47:36;;;;;;;15.90;5.70;;;;;;;;;;4924739;29;20245;-70
2023/12/25 07:50:03;;;;;;;13.07;5.43;;;;;;;;;;4923470;29;20249;-70
2023/12/25 07:52:28;;;;;;;15.27;5.10;;;;;;;;;;4906608;29;20305;-71
2023/12/25 07:54:55;;;;;;;15.17;5.83;;;;;;;;;;4923028;29;21356;-70
2023/12/25 07:57:21;;;;;;;19.33;6.30;;;;;;;;;;4922327;29;20340;-70
2023/12/25 07:59:47;;;;;;;18.27;6.37;;;;;;;;;;4906321;29;20316;-70
2023/12/25 08:02:13;;;;;;;15.97;5.93;;;;;;;;;;4906123;29;20230;-69
2023/12/25 08:04:38;;;;;;;18.77;7.07;;;;;;;;;;4924749;29;20225;-70
2023/12/25 08:07:04;;;;;;;16.57;6.77;;;;;;;;;;4923951;29;20241;-69
2023/12/25 08:09:29;;;;;;;15.83;6.17;;;;;;;;;;4907111;29;20675;-71
2023/12/25 08:11:54;;;;;;;12.10;5.67;;;;;;;;;;4923680;29;20252;-69
2023/12/25 08:14:20;;;;;;;17.13;6.07;;;;;;;;;;4923336;29;20273;-70
2023/12/25 08:16:45;;;;;;;15.77;6.13;;;;;;;;;;4907968;29;20237;-69
2023/12/25 08:19:11;;;;;;;17.27;5.90;;;;;;;;;;4907921;29;20237;-69
2023/12/25 08:21:36;;;;;;;21.87;6.60;;;;;;;;;;4909438;29;20242;-69
2023/12/25 08:24:02;;;;;;;15.17;6.00;;;;;;;;;;4929673;29;20221;-69
2023/12/25 08:26:27;;;;;;;16.03;6.20;;;;;;;;;;4926988;29;20247;-68
2023/12/25 08:28:53;;;;;;;16.77;6.60;;;;;;;;;;4926375;29;20229;-69
2023/12/25 08:31:18;;;;;;;13.20;5.80;;;;;;;;;;4910178;29;20225;-69
2023/12/25 08:33:43;;;;;;;18.60;5.97;;;;;;;;;;4927501;29;20230;-69
2023/12/25 08:36:09;;;;;;;13.77;5.60;;;;;;;;;;4910075;29;20230;-72
2023/12/25 08:38:38;;;;;;;13.47;5.70;;;;;;;;;;4925856;29;20775;-73
2023/12/25 08:41:04;;;;;;;13.90;5.20;;;;;;;;;;4926687;29;20315;-73
2023/12/25 08:43:29;;;;;;;14.53;5.00;;;;;;;;;;4927325;29;20229;-74
2023/12/25 08:45:55;;;;;;;13.63;5.30;;;;;;;;;;4926559;29;20383;-73
2023/12/25 08:48:20;;;;;;;13.37;4.93;;;;;;;;;;4926670;29;20228;-73
2023/12/25 08:50:45;;;;;;;14.33;4.90;;;;;;;;;;4928213;29;20234;-74
2023/12/25 08:53:11;;;;;;;15.53;5.53;;;;;;;;;;4910934;29;20225;-74
2023/12/25 08:55:36;;;;;;;13.70;5.60;;;;;;;;;;4927911;29;20648;-74
2023/12/25 08:58:02;;;;;;;11.87;5.00;;;;;;;;;;4910261;29;20787;-74
2023/12/25 09:00:28;;;;;;;17.70;5.83;;;;;;;;;;4910625;29;20260;-73
2023/12/25 09:02:54;;;;;;;12.27;5.30;;;;;;;;;;4926118;29;20217;-74
2023/12/25 09:05:19;;;;;;;20.33;7.67;;;;;;;;;;4928170;29;20226;-73
2023/12/25 09:07:45;;;;;;;17.90;7.30;;;;;;;;;;4926121;29;20241;-74
2023/12/25 09:10:10;;;;;;;17.87;8.27;;;;;;;;;;4925878;29;20222;-73
2023/12/25 09:12:36;;;;;;;19.10;6.70;;;;;;;;;;4926514;29;20217;-72
2023/12/25 09:15:01;;;;;;;15.70;6.57;;;;;;;;;;4926383;29;20302;-74
2023/12/25 09:17:27;;;;;;;14.47;6.17;;;;;;;;;;4932013;29;20217;-72
2023/12/25 09:19:52;;;;;;;14.27;5.37;;;;;;;;;;4909659;29;21093;-73
2023/12/25 09:22:20;;;;;;;16.03;6.40;;;;;;;;;;4907848;29;20700;-74
2023/12/25 09:24:45;;;;;;;14.93;5.30;;;;;;;;;;4924773;29;20225;-70
2023/12/25 09:27:11;;;;;;;12.50;5.10;;;;;;;;;;4923017;29;20300;-69
2023/12/25 09:29:36;;;;;;;15.03;4.93;;;;;;;;;;4908625;29;20611;-71
2023/12/25 09:32:02;;;;;;;10.90;4.60;;;;;;;;;;4922518;29;20221;-70
2023/12/25 09:34:27;;;;;;;13.67;4.53;;;;;;;;;;4925915;29;20267;-69
2023/12/25 09:36:55;;;;;;;11.83;4.67;;;;;;;;;;4923031;29;20221;-70
2023/12/25 09:39:20;;;;;;;14.87;4.73;;;;;;;;;;4924874;29;20225;-71
2023/12/25 09:41:46;;;;;;;13.33;4.60;;;;;;;;;;4925172;29;20245;-70
2023/12/25 09:44:11;;;;;;;11.70;5.13;;;;;;;;;;4908798;29;20221;-70
2023/12/25 09:46:37;;;;;;;15.53;4.60;;;;;;;;;;4908188;29;20292;-71
2023/12/25 09:49:02;;;;;;;14.70;4.80;;;;;;;;;;4908589;29;20217;-70
2023/12/25 09:51:27;;;;;;;11.77;4.40;;;;;;;;;;4925801;29;20305;-71
2023/12/25 09:53:53;;;;;;;11.50;4.30;;;;;;;;;;4920006;29;20221;-69
2023/12/25 09:56:19;;;;;;;12.43;4.67;;;;;;;;;;4923355;29;20254;-68
2023/12/25 09:58:44;;;;;;;14.03;4.50;;;;;;;;;;4923979;29;20337;-71
2023/12/25 10:01:13;;;;;;;12.60;4.70;;;;;;;;;;4923336;29;20320;-70
2023/12/25 10:03:40;;;;;;;12.10;4.80;;;;;;;;;;4915810;29;20230;-71
2023/12/25 10:06:06;;;;;;;11.87;4.67;;;;;;;;;;4923342;29;20336;-71
2023/12/25 10:08:31;;;;;;;11.97;5.10;;;;;;;;;;4923929;29;20228;-70
2023/12/25 10:10:56;;;;;;;12.00;5.10;;;;;;;;;;4924659;29;20615;-71
2023/12/25 10:13:25;;;;;;;10.80;4.63;;;;;;;;;;4924394;29;20225;-70
2023/12/25 10:15:50;;;;;;;14.80;5.00;;;;;;;;;;4909312;29;20272;-70
2023/12/25 10:18:16;;;;;;;10.97;4.70;;;;;;;;;;4920962;29;20320;-70
2023/12/25 10:20:43;;;;;;;11.77;4.70;;;;;;;;;;4923293;29;20235;-70
2023/12/25 10:23:12;;;;;;;13.37;4.77;;;;;;;;;;4914331;29;20221;-71
2023/12/25 10:25:42;;;;;;;10.47;4.70;;;;;;;;;;4907157;29;20268;-70
2023/12/25 10:28:11;;;;;;;12.93;4.60;;;;;;;;;;4909070;29;20770;-70
2023/12/25 10:30:36;;;;;;;15.43;5.00;;;;;;;;;;4923983;29;20235;-69
2023/12/25 10:33:09;;;;;;;15.30;4.77;;;;;;;;;;4909426;29;20630;-71
2023/12/25 10:35:34;;;;;;;12.27;4.67;;;;;;;;;;4924926;29;20241;-70
2023/12/25 10:37:59;;;;;;;14.67;5.00;;;;;;;;;;4907183;29;20230;-69
2023/12/25 10:40:25;;;;;;;16.07;5.70;;;;;;;;;;4904768;29;20250;-70
2023/12/25 10:42:54;;;;;;;27.57;8.73;;;;;;;;;;4906357;29;20253;-70
2023/12/25 10:45:22;;;;;;;24.73;10.57;;;;;;;;;;4907110;29;20233;-70
2023/12/25 10:47:49;;;;;;;28.43;10.57;;;;;;;;;;4904088;29;20293;-71
2023/12/25 10:50:14;;;;;;;15.03;6.20;;;;;;;;;;4889105;29;20240;-69
2023/12/25 10:52:40;;;;;;;12.07;4.80;;;;;;;;;;4906408;29;20317;-70
2023/12/25 10:55:05;;;;;;;16.57;5.03;;;;;;;;;;4905331;29;20238;-70
2023/12/25 10:57:31;;;;;;;17.33;4.93;;;;;;;;;;4904698;29;20248;-70
2023/12/25 10:59:56;;;;;;;11.77;4.67;;;;;;;;;;4888689;29;20321;-71
2023/12/25 11:02:21;;;;;;;15.23;4.63;;;;;;;;;;4889149;29;20321;-71
2023/12/25 11:04:47;;;;;;;10.57;4.70;;;;;;;;;;4906498;29;20233;-69
2023/12/25 11:07:13;;;;;;;10.97;4.73;;;;;;;;;;4925406;29;20336;-69
2023/12/25 11:09:39;;;;;;;10.17;4.60;;;;;;;;;;4920957;29;20233;-70
2023/12/25 11:12:05;;;;;;;12.23;4.60;;;;;;;;;;4924117;29;20228;-69
2023/12/25 11:14:30;;;;;;;21.80;5.00;;;;;;;;;;4909030;29;20221;-70
2023/12/25 11:16:56;;;;;;;14.00;5.23;;;;;;;;;;4925091;29;20233;-69
2023/12/25 11:19:21;;;;;;;17.07;5.13;;;;;;;;;;4924444;29;20237;-74
2023/12/25 11:21:47;;;;;;;15.40;5.13;;;;;;;;;;4923633;29;20257;-72
2023/12/25 11:24:12;;;;;;;16.13;5.03;;;;;;;;;;4923889;29;21264;-73
2023/12/25 11:26:37;;;;;;;15.40;5.10;;;;;;;;;;4923230;29;20276;-74
2023/12/25 11:29:03;;;;;;;16.53;5.40;;;;;;;;;;4923675;29;20384;-72
2023/12/25 11:31:29;;;;;;;16.00;5.27;;;;;;;;;;4923801;29;20687;-73
2023/12/25 11:34:14;;;;;;;14.90;5.03;;;;;;;;;;4923486;29;20241;-73
2023/12/25 11:36:40;;;;;;;14.17;5.03;;;;;;;;;;4924748;29;20241;-73
2023/12/25 11:39:05;;;;;;;13.67;5.20;;;;;;;;;;4925259;29;20221;-73
2023/12/25 11:41:37;;;;;;;15.37;4.93;;;;;;;;;;4923724;29;20229;-72
2023/12/25 11:44:06;;;;;;;13.53;4.90;;;;;;;;;;4908540;29;20280;-72
2023/12/25 11:46:34;;;;;;;10.53;4.77;;;;;;;;;;4923068;29;20236;-73
2023/12/25 11:49:00;;;;;;;18.63;5.23;;;;;;;;;;4923723;29;20265;-74
2023/12/25 11:51:26;;;;;;;13.93;5.03;;;;;;;;;;4925050;29;20237;-73
2023/12/25 11:53:52;;;;;;;18.00;5.40;;;;;;;;;;4907394;29;20229;-74
2023/12/25 11:56:17;;;;;;;17.40;5.40;;;;;;;;;;4908459;29;20304;-73
2023/12/25 11:58:43;;;;;;;11.13;5.30;;;;;;;;;;4923994;29;20549;-72
2023/12/25 12:01:09;;;;;;;14.13;5.23;;;;;;;;;;4927841;29;20221;-73
2023/12/25 12:03:34;;;;;;;13.53;5.17;;;;;;;;;;4927952;29;20233;-73
2023/12/25 12:05:59;;;;;;;16.10;4.90;;;;;;;;;;4909610;29;20218;-72
2023/12/25 12:08:28;;;;;;;13.30;6.50;;;;;;;;;;4922927;29;20241;-73
2023/12/25 12:10:54;;;;;;;13.50;5.30;;;;;;;;;;4926150;29;21319;-73
2023/12/25 12:13:20;;;;;;;17.03;5.00;;;;;;;;;;4927218;29;20237;-73
2023/12/25 12:15:45;;;;;;;11.67;5.10;;;;;;;;;;4925748;29;20270;-73
2023/12/25 12:18:10;;;;;;;13.23;4.87;;;;;;;;;;4927454;29;20228;-73
2023/12/25 12:20:36;;;;;;;12.83;5.10;;;;;;;;;;4926590;29;20265;-73
2023/12/25 12:23:01;;;;;;;13.27;4.87;;;;;;;;;;4928966;29;20308;-72
2023/12/25 12:25:28;;;;;;;14.60;4.70;;;;;;;;;;4912068;29;20221;-72
2023/12/25 12:27:56;;;;;;;14.10;4.57;;;;;;;;;;4910211;29;20665;-71
2023/12/25 12:30:21;;;;;;;12.87;4.77;;;;;;;;;;4926413;29;20268;-71
2023/12/25 12:32:47;;;;;;;12.77;5.00;;;;;;;;;;4925464;29;20614;-72
2023/12/25 12:35:12;;;;;;;12.93;4.53;;;;;;;;;;4925967;29;20329;-71
2023/12/25 12:37:37;;;;;;;11.70;4.37;;;;;;;;;;4901892;29;20329;-72
2023/12/25 12:40:06;;;;;;;12.13;4.50;;;;;;;;;;4906529;29;20249;-72
2023/12/25 12:42:35;;;;;;;11.57;4.20;;;;;;;;;;4907171;29;20226;-71
2023/12/25 12:45:01;;;;;;;11.60;4.20;;;;;;;;;;4921709;29;20230;-70
2023/12/25 12:47:26;;;;;;;12.33;4.43;;;;;;;;;;4907332;29;20226;-71
2023/12/25 12:49:51;;;;;;;15.37;4.43;;;;;;;;;;4906384;29;20241;-70
2023/12/25 12:52:17;;;;;;;14.77;4.70;;;;;;;;;;4889935;29;20223;-72
2023/12/25 12:54:42;;;;;;;12.47;4.23;;;;;;;;;;4907034;29;20234;-71
2023/12/25 12:57:08;;;;;;;16.03;4.80;;;;;;;;;;4912055;29;20222;-71
2023/12/25 12:59:33;;;;;;;15.27;4.57;;;;;;;;;;4906018;29;20237;-72
2023/12/25 13:01:59;;;;;;;14.67;4.80;;;;;;;;;;4906411;29;20946;-73
2023/12/25 13:04:24;;;;;;;11.97;4.37;;;;;;;;;;4907028;29;20233;-74
2023/12/25 13:06:49;;;;;;;12.00;4.43;;;;;;;;;;4906203;29;20250;-73
2023/12/25 13:09:15;;;;;;;20.47;4.60;;;;;;;;;;4907784;29;21113;-72
2023/12/25 13:11:40;;;;;;;12.87;4.70;;;;;;;;;;4906028;29;20285;-72
2023/12/25 13:14:05;;;;;;;11.27;4.23;;;;;;;;;;4923234;29;20273;-73
2023/12/25 13:16:31;;;;;;;11.93;4.33;;;;;;;;;;4908972;29;20235;-72
2023/12/25 13:18:56;;;;;;;13.27;4.67;;;;;;;;;;4907168;29;20229;-73
2023/12/25 13:21:21;;;;;;;13.63;4.50;;;;;;;;;;4907093;29;20218;-73
2023/12/25 13:23:47;;;;;;;15.67;4.47;;;;;;;;;;4907378;29;20320;-72
2023/12/25 13:26:12;;;;;;;15.03;4.67;;;;;;;;;;4908972;29;20228;-72
2023/12/25 13:28:39;;;;;;;14.57;4.67;;;;;;;;;;4905863;29;20236;-73
2023/12/25 13:31:05;;;;;;;11.27;4.80;;;;;;;;;;4922753;29;20783;-73
2023/12/25 13:33:30;;;;;;;14.57;4.97;;;;;;;;;;4906928;29;21078;-74
2023/12/25 13:35:55;;;;;;;10.97;4.60;;;;;;;;;;4922315;29;20260;-73
2023/12/25 13:38:21;;;;;;;11.17;4.27;;;;;;;;;;4906919;29;20258;-73
2023/12/25 13:40:46;;;;;;;13.80;4.57;;;;;;;;;;4905186;29;20297;-73
2023/12/25 13:43:11;;;;;;;16.13;4.87;;;;;;;;;;4908605;29;20305;-73
2023/12/25 13:45:37;;;;;;;16.37;4.97;;;;;;;;;;4906377;29;20238;-73
2023/12/25 13:48:02;;;;;;;12.60;4.87;;;;;;;;;;4922697;29;20865;-73
2023/12/25 13:50:28;;;;;;;12.40;4.60;;;;;;;;;;4907924;29;20230;-73
2023/12/25 13:52:54;;;;;;;12.80;4.37;;;;;;;;;;4907376;29;20226;-73
2023/12/25 13:55:19;;;;;;;11.70;4.70;;;;;;;;;;4906505;29;20222;-72
2023/12/25 13:57:46;;;;;;;12.80;4.70;;;;;;;;;;4921689;29;20222;-72
2023/12/25 14:00:12;;;;;;;14.07;4.30;;;;;;;;;;4905441;29;20238;-73
2023/12/25 14:02:38;;;;;;;14.50;4.57;;;;;;;;;;4906870;29;20234;-72
2023/12/25 14:05:03;;;;;;;14.23;5.17;;;;;;;;;;4922173;29;20246;-73
2023/12/25 14:07:29;;;;;;;16.27;7.97;;;;;;;;;;4906012;29;20286;-74
2023/12/25 14:09:54;;;;;;;14.43;6.90;;;;;;;;;;4921448;29;20308;-72
2023/12/25 14:12:19;;;;;;;14.90;6.90;;;;;;;;;;4906847;29;20341;-73
2023/12/25 14:14:45;;;;;;;14.37;5.97;;;;;;;;;;4907162;29;20234;-72
2023/12/25 14:17:10;;;;;;;15.13;4.80;;;;;;;;;;4910413;29;20230;-72
2023/12/25 14:19:36;;;;;;;12.43;4.30;;;;;;;;;;4891350;29;20332;-73